Time;durP1;ratioP1;P1;durP2;ratioP2;P2;SDS_P1;SDS_P2;PMS_P1;PMS_P2;Temp;Humidity;BMP_temperature;BMP_pressure;BME280_temperature;BME280_humidity;BME280_pressure;Samples;Min_cycle;Max_cycle;Signal;HPM_P1;HPM_P2
2023/07/15 00:00:21;;;;;;;4.50;4.07;;;20.10;99.90;;;;;;4952289;29;20281;-76
2023/07/15 00:02:50;;;;;;;5.63;5.13;;;20.10;99.90;;;;;;4937815;29;20241;-76
2023/07/15 00:05:20;;;;;;;5.70;5.20;;;20.10;99.90;;;;;;4939260;29;20221;-76
2023/07/15 00:07:48;;;;;;;4.43;4.03;;;20.10;99.90;;;;;;4940425;28;20237;-77
2023/07/15 00:10:15;;;;;;;6.20;5.60;;;20.00;99.90;;;;;;4949076;28;20221;-77
2023/07/15 00:12:42;;;;;;;6.40;5.90;;;20.00;99.90;;;;;;4945612;28;20209;-76
2023/07/15 00:15:11;;;;;;;6.53;5.93;;;20.00;99.90;;;;;;4944437;28;20223;-76
2023/07/15 00:17:38;;;;;;;6.30;5.80;;;20.00;99.90;;;;;;4944304;29;20193;-76
2023/07/15 00:20:10;;;;;;;4.73;4.07;;;20.00;99.90;;;;;;4947856;29;20236;-76
2023/07/15 00:22:37;;;;;;;3.90;3.60;;;20.00;99.90;;;;;;4941341;28;20568;-76
2023/07/15 00:25:05;;;;;;;3.47;3.17;;;19.90;99.90;;;;;;4933652;28;20646;-76
2023/07/15 00:27:33;;;;;;;5.30;4.90;;;19.90;99.90;;;;;;4943239;29;20694;-77
2023/07/15 00:30:00;;;;;;;5.03;4.63;;;19.80;99.90;;;;;;4937000;28;20229;-75
2023/07/15 00:32:29;;;;;;;4.10;3.67;;;19.80;99.90;;;;;;4942044;28;20578;-77
2023/07/15 00:34:56;;;;;;;5.07;4.67;;;19.70;99.90;;;;;;4944843;28;20203;-76
2023/07/15 00:37:24;;;;;;;4.33;3.93;;;19.70;99.90;;;;;;4942750;29;20258;-76
2023/07/15 00:39:50;;;;;;;6.17;5.57;;;19.60;99.90;;;;;;4951103;28;20271;-77
2023/07/15 00:42:35;;;;;;;5.47;4.97;;;19.60;99.90;;;;;;4948821;29;20298;-76
2023/07/15 00:45:03;;;;;;;5.60;5.10;;;19.50;99.90;;;;;;4944673;29;20228;-77
2023/07/15 00:47:38;;;;;;;4.53;3.83;;;19.40;99.90;;;;;;4941551;28;20209;-75
2023/07/15 00:50:06;;;;;;;4.47;3.37;;;19.40;99.90;;;;;;4940243;28;20239;-76
2023/07/15 00:52:33;;;;;;;4.73;3.60;;;19.30;99.90;;;;;;4939214;28;20214;-77
2023/07/15 00:55:02;;;;;;;4.93;4.43;;;19.30;99.90;;;;;;4946393;28;20703;-76
2023/07/15 00:57:30;;;;;;;4.37;3.97;;;19.30;99.90;;;;;;4944824;28;20222;-76
2023/07/15 00:59:59;;;;;;;5.47;4.87;;;19.30;99.90;;;;;;4938822;28;20242;-76
2023/07/15 01:02:27;;;;;;;6.43;5.93;;;19.20;99.90;;;;;;4949930;29;20208;-75
2023/07/15 01:04:55;;;;;;;5.87;5.27;;;19.20;99.90;;;;;;4941899;29;20702;-77
2023/07/15 01:07:22;;;;;;;5.00;4.60;;;19.10;99.90;;;;;;4939458;28;20210;-77
2023/07/15 01:09:50;;;;;;;6.20;5.70;;;19.10;99.90;;;;;;4948019;28;20289;-74
2023/07/15 01:12:16;;;;;;;5.17;4.27;;;19.00;99.90;;;;;;4945784;28;20295;-77
2023/07/15 01:14:44;;;;;;;6.47;5.97;;;19.00;99.90;;;;;;4943827;28;20232;-75
2023/07/15 01:17:11;;;;;;;6.60;6.10;;;18.90;99.90;;;;;;4943993;28;20300;-76
2023/07/15 01:19:38;;;;;;;6.90;6.30;;;18.90;99.90;;;;;;4947099;29;20802;-76
2023/07/15 01:22:07;;;;;;;6.67;6.13;;;18.90;99.90;;;;;;4939213;28;20196;-76
2023/07/15 01:24:37;;;;;;;6.70;6.10;;;18.80;99.90;;;;;;4943566;28;20271;-75
2023/07/15 01:27:08;;;;;;;4.73;4.33;;;18.80;99.90;;;;;;4938099;29;20212;-76
2023/07/15 01:29:35;;;;;;;4.90;4.10;;;18.70;99.90;;;;;;4942411;28;20224;-76
2023/07/15 01:32:02;;;;;;;4.70;4.30;;;18.70;99.90;;;;;;4942970;28;20672;-76
2023/07/15 01:34:30;;;;;;;6.30;5.90;;;18.70;99.90;;;;;;4947245;29;20206;-76
2023/07/15 01:36:58;;;;;;;5.20;4.80;;;18.70;99.90;;;;;;4939479;29;20207;-77
2023/07/15 01:39:25;;;;;;;5.80;5.40;;;18.70;99.90;;;;;;4948374;29;20230;-76
2023/07/15 01:41:55;;;;;;;6.23;5.73;;;18.70;99.90;;;;;;4946348;28;20211;-76
2023/07/15 01:44:24;;;;;;;6.30;5.80;;;18.70;99.90;;;;;;4944129;28;20202;-77
2023/07/15 01:46:50;;;;;;;5.93;5.53;;;18.70;99.90;;;;;;4940981;28;20226;-76
2023/07/15 01:49:17;;;;;;;5.93;5.53;;;18.70;99.90;;;;;;4940883;28;20369;-76
2023/07/15 01:51:44;;;;;;;6.57;6.07;;;18.70;99.90;;;;;;4945721;29;20199;-75
2023/07/15 01:54:11;;;;;;;6.50;6.00;;;18.70;99.90;;;;;;4926265;28;20669;-75
2023/07/15 01:56:41;;;;;;;6.50;6.00;;;18.60;99.90;;;;;;4928608;29;20587;-76
2023/07/15 01:59:10;;;;;;;6.47;5.87;;;18.60;99.90;;;;;;4929299;28;20282;-76
2023/07/15 02:01:37;;;;;;;6.43;5.93;;;18.50;99.90;;;;;;4935979;29;20203;-76
2023/07/15 02:04:04;;;;;;;6.23;5.80;;;18.50;99.90;;;;;;4949733;28;20638;-76
2023/07/15 02:06:31;;;;;;;6.10;5.67;;;18.50;99.90;;;;;;4948983;29;20227;-77
2023/07/15 02:08:58;;;;;;;6.80;6.20;;;18.40;99.90;;;;;;4942331;28;20228;-76
2023/07/15 02:11:25;;;;;;;6.77;6.20;;;18.40;99.90;;;;;;4939865;28;20207;-76
2023/07/15 02:13:52;;;;;;;6.60;6.03;;;18.30;99.90;;;;;;4936894;28;20199;-76
2023/07/15 02:16:21;;;;;;;6.03;5.53;;;18.20;99.90;;;;;;4939911;28;20198;-75
2023/07/15 02:18:48;;;;;;;6.80;6.30;;;18.20;99.90;;;;;;4943568;28;20226;-76
2023/07/15 02:21:15;;;;;;;6.00;5.60;;;18.20;99.90;;;;;;4945726;28;20266;-77
2023/07/15 02:23:42;;;;;;;6.07;5.57;;;18.10;99.90;;;;;;4949732;29;20200;-77
2023/07/15 02:26:12;;;;;;;6.70;6.10;;;18.10;99.90;;;;;;4935351;29;20215;-76
2023/07/15 02:28:39;;;;;;;6.50;6.00;;;18.10;99.90;;;;;;4930660;28;20284;-76
2023/07/15 02:31:06;;;;;;;5.83;5.43;;;18.00;99.90;;;;;;4941631;29;20269;-76
2023/07/15 02:33:34;;;;;;;6.07;5.67;;;18.10;99.90;;;;;;4945391;28;20214;-75
2023/07/15 02:36:02;;;;;;;7.20;6.60;;;18.00;99.90;;;;;;4944237;28;20213;-75
2023/07/15 02:38:29;;;;;;;4.73;3.90;;;17.90;99.90;;;;;;4941753;28;20227;-76
2023/07/15 02:40:56;;;;;;;5.17;4.63;;;17.90;99.90;;;;;;4945125;28;20255;-76
2023/07/15 02:43:23;;;;;;;4.50;4.10;;;17.90;99.90;;;;;;4948929;29;20578;-76
2023/07/15 02:45:51;;;;;;;4.70;4.30;;;17.90;99.90;;;;;;4936705;29;20226;-76
2023/07/15 02:48:19;;;;;;;4.67;4.27;;;17.90;99.90;;;;;;4947380;28;20199;-76
2023/07/15 02:50:51;;;;;;;4.77;4.27;;;17.80;99.90;;;;;;4942114;28;20637;-76
2023/07/15 02:53:18;;;;;;;4.90;4.00;;;17.90;99.90;;;;;;4949247;29;20555;-77
2023/07/15 02:55:45;;;;;;;4.63;4.23;;;17.90;99.90;;;;;;4933945;28;20223;-77
2023/07/15 02:58:13;;;;;;;4.27;3.97;;;17.90;99.90;;;;;;4923557;29;20199;-77
2023/07/15 03:00:41;;;;;;;4.70;4.30;;;17.90;99.90;;;;;;4928628;29;20204;-77
2023/07/15 03:03:09;;;;;;;4.57;4.17;;;17.90;99.90;;;;;;4927685;28;20200;-78
2023/07/15 03:05:36;;;;;;;4.63;4.23;;;17.90;99.90;;;;;;4925803;28;20694;-78
2023/07/15 03:08:05;;;;;;;4.27;3.87;;;17.90;99.90;;;;;;4929398;29;20203;-78
2023/07/15 03:10:32;;;;;;;5.67;4.07;;;17.80;99.90;;;;;;4931991;29;20196;-78
2023/07/15 03:12:58;;;;;;;4.27;3.87;;;17.80;99.90;;;;;;4928168;29;20293;-77
2023/07/15 03:15:25;;;;;;;4.27;3.97;;;17.80;99.90;;;;;;4924502;29;20196;-77
2023/07/15 03:17:52;;;;;;;4.57;4.17;;;17.80;99.90;;;;;;4927950;29;20688;-77
2023/07/15 03:20:20;;;;;;;4.43;4.03;;;17.80;99.90;;;;;;4930232;29;20712;-78
2023/07/15 03:22:49;;;;;;;4.13;3.73;;;17.80;99.90;;;;;;4923054;29;20250;-77
2023/07/15 03:25:19;;;;;;;4.20;3.80;;;17.80;99.90;;;;;;4929763;29;20201;-78
2023/07/15 03:27:46;;;;;;;4.30;4.00;;;17.80;99.90;;;;;;4933121;29;20737;-77
2023/07/15 03:30:13;;;;;;;4.27;3.97;;;17.80;99.90;;;;;;4929288;29;20595;-77
2023/07/15 03:32:41;;;;;;;4.70;4.30;;;17.80;99.90;;;;;;4934426;29;20203;-77
2023/07/15 03:35:09;;;;;;;6.63;6.03;;;17.80;99.90;;;;;;4932404;29;20207;-77
2023/07/15 03:37:37;;;;;;;5.90;5.50;;;17.70;99.90;;;;;;4929585;29;20192;-77
2023/07/15 03:40:07;;;;;;;6.17;5.57;;;17.70;99.90;;;;;;4930447;29;20220;-78
2023/07/15 03:42:36;;;;;;;4.70;4.30;;;17.60;99.90;;;;;;4930300;29;20212;-76
2023/07/15 03:45:03;;;;;;;4.70;4.30;;;17.60;99.90;;;;;;4938169;29;20203;-77
2023/07/15 03:47:30;;;;;;;4.57;4.17;;;17.60;99.90;;;;;;4934600;29;20222;-78
2023/07/15 03:49:57;;;;;;;5.17;4.60;;;17.50;99.90;;;;;;4930324;29;20227;-78
2023/07/15 03:52:24;;;;;;;5.00;4.50;;;17.50;99.90;;;;;;4934030;29;20215;-78
2023/07/15 03:54:51;;;;;;;7.50;6.90;;;17.50;99.90;;;;;;4947610;29;20233;-78
2023/07/15 03:57:17;;;;;;;7.00;6.40;;;17.60;99.90;;;;;;4950227;28;20663;-77
2023/07/15 03:59:45;;;;;;;6.90;6.30;;;17.50;99.90;;;;;;4947398;29;20658;-78
2023/07/15 04:02:12;;;;;;;6.60;6.10;;;17.50;99.90;;;;;;4944531;29;20215;-78
2023/07/15 04:04:39;;;;;;;6.90;6.33;;;17.60;99.90;;;;;;4953670;29;20218;-79
2023/07/15 04:07:07;;;;;;;7.30;6.70;;;17.60;99.90;;;;;;4926695;29;20230;-77
2023/07/15 04:09:35;;;;;;;7.00;6.50;;;17.60;99.90;;;;;;4938621;29;20243;-78
2023/07/15 04:12:02;;;;;;;6.63;6.03;;;17.60;99.90;;;;;;4943660;28;20224;-81
2023/07/15 04:14:29;;;;;;;6.70;6.20;;;17.60;99.90;;;;;;4936989;29;20204;-76
2023/07/15 04:16:57;;;;;;;7.10;6.50;;;17.70;99.90;;;;;;4939903;29;20727;-77
2023/07/15 04:19:24;;;;;;;7.27;6.57;;;17.70;99.90;;;;;;4950451;28;20225;-78
2023/07/15 04:21:50;;;;;;;8.10;7.30;;;17.70;99.90;;;;;;4939171;28;20219;-77
2023/07/15 04:24:17;;;;;;;7.00;6.40;;;17.80;99.90;;;;;;4930334;28;20231;-78
2023/07/15 04:26:45;;;;;;;7.67;7.07;;;17.80;99.90;;;;;;4930771;29;20305;-76
2023/07/15 04:29:12;;;;;;;5.30;4.83;;;17.80;99.90;;;;;;4949093;28;20216;-76
2023/07/15 04:31:42;;;;;;;4.83;4.43;;;17.80;99.90;;;;;;4949175;29;20254;-76
2023/07/15 04:34:10;;;;;;;4.67;4.27;;;17.90;99.90;;;;;;4943216;28;20235;-76
2023/07/15 04:36:37;;;;;;;4.60;4.27;;;17.90;99.90;;;;;;4941261;28;20255;-76
2023/07/15 04:39:04;;;;;;;4.93;4.50;;;17.90;99.90;;;;;;4940852;28;21044;-75
2023/07/15 04:41:31;;;;;;;5.37;4.90;;;18.00;99.90;;;;;;4948201;28;20228;-76
2023/07/15 04:43:58;;;;;;;7.40;6.80;;;18.10;99.90;;;;;;4947143;28;20208;-76
2023/07/15 04:46:25;;;;;;;5.30;4.90;;;18.20;99.90;;;;;;4947675;28;20249;-76
2023/07/15 04:48:51;;;;;;;4.97;4.50;;;18.30;99.90;;;;;;4952735;29;20223;-76
2023/07/15 04:51:19;;;;;;;7.60;7.10;;;18.30;99.90;;;;;;4943129;29;20227;-76
2023/07/15 04:53:46;;;;;;;5.13;4.30;;;18.50;99.90;;;;;;4931989;28;20210;-76
2023/07/15 04:56:13;;;;;;;5.70;5.20;;;18.80;99.90;;;;;;4947672;28;20255;-76
2023/07/15 04:58:40;;;;;;;4.57;4.00;;;19.40;99.90;;;;;;4945591;28;20325;-76
2023/07/15 05:01:07;;;;;;;5.50;4.57;;;19.90;99.90;;;;;;4942703;28;20260;-78
2023/07/15 05:03:34;;;;;;;6.87;6.27;;;20.40;99.90;;;;;;4933149;29;20196;-77
2023/07/15 05:06:01;;;;;;;4.90;4.40;;;20.50;99.90;;;;;;4948518;29;20273;-79
2023/07/15 05:08:29;;;;;;;7.00;6.40;;;20.50;99.90;;;;;;4941666;28;20317;-78
2023/07/15 05:10:57;;;;;;;5.63;5.13;;;20.50;99.90;;;;;;4939975;28;20263;-78
2023/07/15 05:13:25;;;;;;;5.13;4.63;;;20.40;99.90;;;;;;4953757;28;20584;-76
2023/07/15 05:15:52;;;;;;;5.07;4.57;;;20.40;99.90;;;;;;4946112;28;20208;-77
2023/07/15 05:18:19;;;;;;;5.30;4.80;;;20.40;99.90;;;;;;4949970;28;20281;-77
2023/07/15 05:20:46;;;;;;;5.17;4.67;;;20.40;99.90;;;;;;4950329;29;20528;-77
2023/07/15 05:23:14;;;;;;;6.77;6.17;;;20.50;99.90;;;;;;4933851;29;20246;-76
2023/07/15 05:25:42;;;;;;;7.10;6.40;;;20.80;99.90;;;;;;4944065;29;20282;-77
2023/07/15 05:28:09;;;;;;;7.23;6.63;;;21.10;99.90;;;;;;4927230;29;20244;-77
2023/07/15 05:30:37;;;;;;;5.07;4.57;;;21.20;99.90;;;;;;4930187;29;20191;-79
2023/07/15 05:33:03;;;;;;;5.97;3.87;;;21.40;99.90;;;;;;4951065;29;20293;-77
2023/07/15 05:35:30;;;;;;;4.70;4.17;;;21.50;99.90;;;;;;4948825;28;20598;-78
2023/07/15 05:37:57;;;;;;;7.00;6.37;;;21.60;99.90;;;;;;4950090;28;20200;-78
2023/07/15 05:40:24;;;;;;;6.63;6.07;;;21.70;99.90;;;;;;4953748;28;20224;-78
2023/07/15 05:42:52;;;;;;;7.10;6.50;;;21.80;99.90;;;;;;4947004;29;20556;-78
2023/07/15 05:45:19;;;;;;;6.77;6.17;;;21.90;99.90;;;;;;4934166;29;20258;-78
2023/07/15 05:47:46;;;;;;;7.80;7.20;;;22.20;99.90;;;;;;4932274;29;20250;-79
2023/07/15 05:50:13;;;;;;;6.50;5.93;;;22.60;99.90;;;;;;4929704;29;20227;-78
2023/07/15 05:52:40;;;;;;;6.83;6.33;;;23.00;99.90;;;;;;4933936;29;20191;-78
2023/07/15 05:55:07;;;;;;;6.70;4.80;;;23.70;99.90;;;;;;4930242;29;20203;-78
2023/07/15 05:57:34;;;;;;;6.10;5.50;;;24.50;99.90;;;;;;4935226;29;20206;-78
2023/07/15 06:00:02;;;;;;;6.80;6.13;;;25.40;99.90;;;;;;4932494;29;20582;-77
2023/07/15 06:02:35;;;;;;;5.97;5.40;;;26.20;99.90;;;;;;4937044;29;20195;-79
2023/07/15 06:05:02;;;;;;;7.80;7.10;;;26.80;99.90;;;;;;4931446;29;20652;-79
2023/07/15 06:07:29;;;;;;;7.37;6.77;;;27.20;99.90;;;;;;4931063;29;20246;-78
2023/07/15 06:09:56;;;;;;;6.70;6.10;;;27.60;99.90;;;;;;4934356;29;20246;-79
2023/07/15 06:12:23;;;;;;;6.80;6.20;;;27.90;99.90;;;;;;4930950;29;20196;-80
2023/07/15 06:14:50;;;;;;;5.47;4.80;;;28.20;99.90;;;;;;4932562;29;20215;-79
2023/07/15 06:17:18;;;;;;;5.37;4.87;;;28.40;99.90;;;;;;4929808;29;20294;-79
2023/07/15 06:19:45;;;;;;;5.93;5.33;;;28.70;99.90;;;;;;4938017;29;20223;-80
2023/07/15 06:22:11;;;;;;;6.00;5.60;;;28.70;99.90;;;;;;4931497;29;20256;-80
2023/07/15 06:24:38;;;;;;;6.27;5.77;;;28.70;99.90;;;;;;4934150;29;20263;-79
2023/07/15 06:27:05;;;;;;;5.87;5.37;;;28.40;99.90;;;;;;4931619;29;20694;-80
2023/07/15 06:29:32;;;;;;;4.93;4.60;;;28.40;99.90;;;;;;4937195;29;20223;-79
2023/07/15 06:31:59;;;;;;;5.20;4.80;;;28.70;99.90;;;;;;4932750;29;20242;-80
2023/07/15 06:34:28;;;;;;;6.40;5.90;;;29.10;99.90;;;;;;4930334;29;20227;-78
2023/07/15 06:36:55;;;;;;;6.10;5.70;;;29.40;99.90;;;;;;4927370;29;20208;-78
2023/07/15 06:39:22;;;;;;;6.27;5.67;;;29.50;99.90;;;;;;4934328;29;20282;-81
2023/07/15 06:41:51;;;;;;;6.10;5.60;;;29.90;99.90;;;;;;4932488;29;20635;-80
2023/07/15 06:44:18;;;;;;;5.37;4.87;;;30.20;99.90;;;;;;4931494;28;20259;-79
2023/07/15 06:46:44;;;;;;;6.40;5.90;;;30.50;99.90;;;;;;4937064;29;20265;-80
2023/07/15 06:49:11;;;;;;;6.23;5.73;;;30.80;99.90;;;;;;4934100;29;20215;-79
2023/07/15 06:51:39;;;;;;;6.30;5.80;;;30.90;99.90;;;;;;4931872;29;20199;-80
2023/07/15 06:54:06;;;;;;;6.00;5.60;;;31.10;99.90;;;;;;4934062;29;20271;-82
2023/07/15 06:56:33;;;;;;;5.23;4.83;;;31.30;99.90;;;;;;4929900;29;20235;-80
2023/07/15 06:59:00;;;;;;;6.50;6.00;;;31.60;99.90;;;;;;4933647;29;20609;-78
2023/07/15 07:01:27;;;;;;;6.83;6.00;;;31.80;99.90;;;;;;4927742;28;20259;-78
2023/07/15 07:03:54;;;;;;;6.67;6.03;;;32.10;99.90;;;;;;4930474;29;20234;-76
2023/07/15 07:06:21;;;;;;;6.15;5.75;;;32.40;99.90;;;;;;4927580;29;20203;-75
2023/07/15 07:08:49;;;;;;;7.10;6.50;;;32.70;99.90;;;;;;4929828;29;20307;-75
2023/07/15 07:11:16;;;;;;;6.05;5.65;;;32.70;99.90;;;;;;4929682;28;20195;-76
2023/07/15 07:13:42;;;;;;;6.50;6.00;;;32.90;99.90;;;;;;4923740;29;20390;-76
2023/07/15 07:16:09;;;;;;;6.57;6.07;;;33.20;98.30;;;;;;4934669;29;20203;-78
2023/07/15 07:18:36;;;;;;;6.38;5.88;;;33.60;97.50;;;;;;4929285;29;20749;-75
2023/07/15 07:21:03;;;;;;;6.50;5.90;;;33.90;95.80;;;;;;4926640;29;20271;-75
2023/07/15 07:23:30;;;;;;;6.13;5.63;;;34.00;95.70;;;;;;4928855;29;20199;-76
2023/07/15 07:26:00;;;;;;;6.60;6.10;;;34.30;95.00;;;;;;4931719;29;20207;-78
2023/07/15 07:28:39;;;;;;;7.15;5.88;;;34.60;94.80;;;;;;4939478;29;20230;-78
2023/07/15 07:31:05;;;;;;;6.53;6.03;;;34.60;92.10;;;;;;4932461;29;20286;-79
2023/07/15 07:33:32;;;;;;;6.15;5.65;;;34.80;93.30;;;;;;4942640;29;20684;-79
2023/07/15 07:35:59;;;;;;;5.47;5.07;;;34.80;93.10;;;;;;4926217;28;20251;-80
2023/07/15 07:38:26;;;;;;;6.20;5.63;;;35.20;92.90;;;;;;4933819;29;20790;-77
2023/07/15 07:40:53;;;;;;;5.82;5.32;;;35.40;92.60;;;;;;4926546;29;20207;-76
2023/07/15 07:43:21;;;;;;;6.20;5.65;;;35.60;91.60;;;;;;4932055;29;20255;-76
2023/07/15 07:45:48;;;;;;;6.03;5.50;;;35.50;91.80;;;;;;4928557;29;20690;-76
2023/07/15 07:48:15;;;;;;;5.72;5.22;;;35.70;90.30;;;;;;4941848;29;20218;-75
2023/07/15 07:50:42;;;;;;;5.05;4.70;;;35.60;90.60;;;;;;4944611;28;20290;-75
2023/07/15 07:53:09;;;;;;;5.03;4.57;;;35.70;90.40;;;;;;4946461;29;20199;-75
2023/07/15 07:55:36;;;;;;;5.20;4.80;;;35.90;90.40;;;;;;4941878;28;20194;-75
2023/07/15 07:58:03;;;;;;;5.53;5.03;;;35.90;89.20;;;;;;4939149;28;20238;-76
2023/07/15 08:00:31;;;;;;;5.78;5.10;;;35.90;88.60;;;;;;4937808;28;20207;-76
2023/07/15 08:02:57;;;;;;;5.30;4.80;;;36.00;87.50;;;;;;4934415;29;20206;-78
2023/07/15 08:05:24;;;;;;;4.60;4.20;;;36.20;88.60;;;;;;4947537;28;20226;-78
2023/07/15 08:07:51;;;;;;;4.88;4.38;;;36.20;88.60;;;;;;4938112;28;20667;-76
2023/07/15 08:10:18;;;;;;;4.40;4.10;;;36.40;84.70;;;;;;4937602;29;20301;-74
2023/07/15 08:12:45;;;;;;;4.80;4.30;;;36.40;84.70;;;;;;4943944;28;20215;-74
2023/07/15 08:15:12;;;;;;;4.88;4.57;;;36.40;85.90;;;;;;4946411;29;20671;-75
2023/07/15 08:17:40;;;;;;;6.25;5.30;;;36.50;85.70;;;;;;4952953;28;20246;-76
2023/07/15 08:20:09;;;;;;;5.80;5.30;;;36.80;85.70;;;;;;4950895;29;20845;-75
2023/07/15 08:22:35;;;;;;;5.13;4.72;;;36.90;83.40;;;;;;4946931;28;20577;-76
2023/07/15 08:25:03;;;;;;;6.38;5.88;;;36.80;84.10;;;;;;4947128;29;20198;-79
2023/07/15 08:27:30;;;;;;;5.80;5.40;;;37.00;82.80;;;;;;4946849;28;20254;-76
2023/07/15 08:29:57;;;;;;;5.70;5.20;;;36.90;83.00;;;;;;4943041;28;20851;-76
2023/07/15 08:32:23;;;;;;;5.40;5.00;;;36.40;82.10;;;;;;4929221;29;20204;-78
2023/07/15 08:34:59;;;;;;;5.25;4.85;;;36.10;81.50;;;;;;4950631;29;20662;-78
2023/07/15 08:37:26;;;;;;;5.93;5.43;;;36.40;82.40;;;;;;4948343;29;20233;-78
2023/07/15 08:39:53;;;;;;;5.78;5.35;;;36.80;79.90;;;;;;4954642;29;20222;-79
2023/07/15 08:42:20;;;;;;;5.55;5.15;;;37.00;78.90;;;;;;4951203;28;20202;-78
2023/07/15 08:44:47;;;;;;;5.65;5.25;;;37.10;79.20;;;;;;4949715;28;20203;-79
2023/07/15 08:47:19;;;;;;;5.80;5.30;;;37.30;77.60;;;;;;4950226;28;20247;-79
2023/07/15 08:49:47;;;;;;;5.25;4.85;;;37.60;77.50;;;;;;4933679;28;20223;-79
2023/07/15 08:52:17;;;;;;;5.35;5.05;;;37.80;77.10;;;;;;4940535;29;20667;-78
2023/07/15 08:54:45;;;;;;;4.55;4.20;;;37.80;74.60;;;;;;4942846;28;20273;-78
2023/07/15 08:57:12;;;;;;;5.20;4.80;;;38.00;75.10;;;;;;4944048;28;20204;-78
2023/07/15 08:59:39;;;;;;;5.43;4.55;;;38.10;75.60;;;;;;4952833;28;20294;-78
2023/07/15 09:02:07;;;;;;;4.78;4.25;;;38.10;75.80;;;;;;4953771;29;20214;-79
2023/07/15 09:04:34;;;;;;;4.85;4.45;;;38.30;75.20;;;;;;4950576;29;20202;-77
2023/07/15 09:07:01;;;;;;;4.90;4.50;;;38.20;74.50;;;;;;4945532;29;20238;-77
2023/07/15 09:09:33;;;;;;;4.45;4.15;;;38.30;73.70;;;;;;4945609;28;20277;-79
2023/07/15 09:12:02;;;;;;;4.75;4.30;;;38.40;73.20;;;;;;4923834;29;20200;-77
2023/07/15 09:14:28;;;;;;;4.75;4.35;;;38.40;74.60;;;;;;4932798;29;20278;-78
2023/07/15 09:16:56;;;;;;;4.88;4.47;;;38.40;72.90;;;;;;4936637;29;20214;-76
2023/07/15 09:19:26;;;;;;;4.90;4.50;;;38.40;75.40;;;;;;4950753;28;20298;-78
2023/07/15 09:21:55;;;;;;;4.68;4.38;;;38.40;74.30;;;;;;4947863;28;20206;-80
2023/07/15 09:24:23;;;;;;;5.10;4.60;;;38.50;74.40;;;;;;4943335;28;20207;-77
2023/07/15 09:26:53;;;;;;;4.95;4.55;;;38.20;72.90;;;;;;4948983;28;20204;-76
2023/07/15 09:29:20;;;;;;;4.82;4.43;;;38.30;73.00;;;;;;4943709;29;20287;-78
2023/07/15 09:31:47;;;;;;;4.80;4.50;;;38.50;71.60;;;;;;4952141;29;20699;-81
2023/07/15 09:34:14;;;;;;;4.90;4.50;;;38.60;71.10;;;;;;4958328;28;20202;-78
2023/07/15 09:36:41;;;;;;;5.40;5.00;;;38.80;70.90;;;;;;4950542;28;20218;-78
2023/07/15 09:39:12;;;;;;;6.00;4.47;;;38.90;70.30;;;;;;4944312;28;20226;-76
2023/07/15 09:41:39;;;;;;;4.82;4.43;;;38.80;71.00;;;;;;4945449;28;20269;-77
2023/07/15 09:44:08;;;;;;;5.03;4.63;;;38.60;70.70;;;;;;4937044;28;20204;-78
2023/07/15 09:46:35;;;;;;;4.95;4.50;;;38.60;70.80;;;;;;4951281;28;20214;-78
2023/07/15 09:49:02;;;;;;;5.22;4.82;;;38.70;73.00;;;;;;4937561;29;20702;-78
2023/07/15 09:51:30;;;;;;;4.72;4.40;;;38.40;69.90;;;;;;4958164;29;20205;-78
2023/07/15 09:53:58;;;;;;;4.85;4.55;;;38.40;70.90;;;;;;4942343;29;20281;-78
2023/07/15 09:56:34;;;;;;;4.80;4.50;;;38.40;69.90;;;;;;4934300;29;20211;-78
2023/07/15 09:59:07;;;;;;;6.70;4.30;;;38.30;70.40;;;;;;4934867;29;20648;-76
2023/07/15 10:01:39;;;;;;;4.57;4.18;;;38.30;69.00;;;;;;4929517;29;20268;-77
2023/07/15 10:04:14;;;;;;;4.50;4.15;;;38.20;70.20;;;;;;4932511;28;20266;-75
2023/07/15 10:06:41;;;;;;;4.70;4.30;;;38.30;70.10;;;;;;4952076;28;20202;-77
2023/07/15 10:09:09;;;;;;;4.80;4.40;;;38.60;70.40;;;;;;4938657;29;20610;-78
2023/07/15 10:11:37;;;;;;;5.20;4.70;;;38.80;71.60;;;;;;4932980;29;20195;-78
2023/07/15 10:14:04;;;;;;;4.55;4.20;;;38.60;68.90;;;;;;4929051;29;20675;-78
2023/07/15 10:16:34;;;;;;;4.55;4.25;;;38.40;70.90;;;;;;4938840;29;20235;-78
2023/07/15 10:19:02;;;;;;;4.60;4.30;;;38.60;70.40;;;;;;4936889;29;20230;-78
2023/07/15 10:21:29;;;;;;;4.72;4.40;;;38.60;69.50;;;;;;4933890;29;20258;-78
2023/07/15 10:24:07;;;;;;;4.80;4.25;;;38.60;68.50;;;;;;4931818;29;20215;-77
2023/07/15 10:26:34;;;;;;;5.15;4.70;;;38.20;68.30;;;;;;4934540;29;20199;-78
2023/07/15 10:29:04;;;;;;;4.63;4.30;;;38.20;67.40;;;;;;4932760;29;20223;-78
2023/07/15 10:31:30;;;;;;;4.43;4.13;;;38.20;68.30;;;;;;4934800;29;20191;-78
2023/07/15 10:33:59;;;;;;;4.32;4.03;;;38.10;70.50;;;;;;4926980;29;20208;-78
2023/07/15 10:36:38;;;;;;;4.45;4.15;;;38.10;69.60;;;;;;4935073;29;20230;-77
2023/07/15 10:39:14;;;;;;;4.68;4.28;;;38.30;69.20;;;;;;4931658;29;20226;-78
2023/07/15 10:41:42;;;;;;;4.28;3.97;;;38.40;69.80;;;;;;4930933;29;20206;-78
2023/07/15 10:44:16;;;;;;;4.20;3.90;;;38.30;67.80;;;;;;4926482;29;20228;-78
2023/07/15 10:46:45;;;;;;;4.20;3.90;;;38.20;70.00;;;;;;4929872;29;20266;-78
2023/07/15 10:49:12;;;;;;;4.15;3.90;;;37.90;67.60;;;;;;4929796;29;20224;-78
2023/07/15 10:51:40;;;;;;;4.60;4.30;;;37.90;68.00;;;;;;4931092;29;20203;-76
2023/07/15 10:54:07;;;;;;;4.50;4.20;;;37.80;67.90;;;;;;4931732;28;20784;-78
2023/07/15 10:56:34;;;;;;;8.00;4.57;;;37.90;66.90;;;;;;4930850;29;20203;-77
2023/07/15 10:59:01;;;;;;;4.53;4.13;;;37.80;69.50;;;;;;4926873;28;20722;-77
2023/07/15 11:01:28;;;;;;;4.53;4.22;;;37.90;68.40;;;;;;4930954;29;20238;-77
2023/07/15 11:03:55;;;;;;;4.40;4.00;;;37.70;67.80;;;;;;4928291;28;20215;-77
2023/07/15 11:06:25;;;;;;;4.35;4.00;;;37.40;69.70;;;;;;4935020;29;20199;-77
2023/07/15 11:08:54;;;;;;;4.68;4.28;;;37.20;69.10;;;;;;4931736;29;20282;-78
2023/07/15 11:11:23;;;;;;;4.50;4.10;;;37.30;69.50;;;;;;4932192;29;20208;-77
2023/07/15 11:13:50;;;;;;;7.75;4.57;;;37.10;68.20;;;;;;4931235;29;20200;-78
2023/07/15 11:16:17;;;;;;;4.47;3.90;;;36.60;67.50;;;;;;4925803;28;20200;-78
2023/07/15 11:18:44;;;;;;;4.10;3.80;;;36.60;69.90;;;;;;4929108;28;20227;-78
2023/07/15 11:21:11;;;;;;;4.40;4.00;;;36.90;69.40;;;;;;4929043;29;20220;-78
2023/07/15 11:23:38;;;;;;;4.90;4.50;;;37.10;69.00;;;;;;4936593;29;20682;-78
2023/07/15 11:26:10;;;;;;;4.53;4.22;;;37.10;68.60;;;;;;4928657;29;20207;-78
2023/07/15 11:28:47;;;;;;;4.32;4.00;;;37.20;69.10;;;;;;4933175;29;20732;-80
2023/07/15 11:31:14;;;;;;;4.10;3.80;;;37.50;68.30;;;;;;4927039;29;20204;-77
2023/07/15 11:33:40;;;;;;;4.05;3.80;;;37.60;67.70;;;;;;4928941;29;20255;-78
2023/07/15 11:36:08;;;;;;;4.25;3.90;;;37.80;67.10;;;;;;4934102;29;20666;-77
2023/07/15 11:38:35;;;;;;;4.20;3.90;;;37.90;68.40;;;;;;4929004;29;20739;-76
2023/07/15 11:41:02;;;;;;;3.97;3.70;;;37.70;65.50;;;;;;4931842;28;20270;-76
2023/07/15 11:43:32;;;;;;;4.43;4.13;;;37.60;68.60;;;;;;4929327;29;20204;-78
2023/07/15 11:46:00;;;;;;;6.18;4.50;;;37.40;66.90;;;;;;4934398;28;20297;-78
2023/07/15 11:48:30;;;;;;;4.40;4.10;;;37.40;67.10;;;;;;4937387;28;20235;-78
2023/07/15 11:50:58;;;;;;;4.10;3.75;;;37.20;66.30;;;;;;4935305;29;20199;-78
2023/07/15 11:53:26;;;;;;;6.38;5.35;;;37.00;68.20;;;;;;4940020;29;20199;-78
2023/07/15 11:55:53;;;;;;;9.43;7.82;;;37.00;67.20;;;;;;4935908;29;20206;-78
2023/07/15 11:58:49;;;;;;;5.53;5.03;;;37.10;67.20;;;;;;4940600;29;20220;-79
2023/07/15 12:01:18;;;;;;;4.43;4.13;;;37.00;66.70;;;;;;4938597;29;20207;-78
2023/07/15 12:03:45;;;;;;;4.30;3.90;;;37.00;66.60;;;;;;4931912;29;20203;-79
2023/07/15 12:06:16;;;;;;;4.20;3.90;;;37.00;66.50;;;;;;4938144;28;20220;-78
2023/07/15 12:08:43;;;;;;;5.90;4.20;;;37.00;65.90;;;;;;4931806;29;20314;-78
2023/07/15 12:11:17;;;;;;;5.50;3.70;;;37.00;67.30;;;;;;4933309;29;20203;-78
2023/07/15 12:13:45;;;;;;;4.43;4.00;;;36.80;68.70;;;;;;4933161;29;20693;-77
2023/07/15 12:16:12;;;;;;;4.20;3.90;;;36.50;68.90;;;;;;4939325;29;20203;-78
2023/07/15 12:18:39;;;;;;;5.50;5.10;;;36.30;67.90;;;;;;4937817;29;20234;-78
2023/07/15 12:21:06;;;;;;;4.93;4.57;;;36.00;68.90;;;;;;4935179;29;20222;-77
2023/07/15 12:23:32;;;;;;;5.40;5.00;;;35.80;69.40;;;;;;4936985;28;20227;-78
2023/07/15 12:25:59;;;;;;;5.20;4.90;;;35.70;69.40;;;;;;4937209;29;20623;-78
2023/07/15 12:28:26;;;;;;;5.03;4.65;;;35.70;67.90;;;;;;4932904;29;20231;-78
2023/07/15 12:30:54;;;;;;;5.35;4.95;;;35.80;68.60;;;;;;4937797;29;20211;-78
2023/07/15 12:33:21;;;;;;;5.75;5.25;;;35.80;66.90;;;;;;4935000;29;20211;-78
2023/07/15 12:35:48;;;;;;;5.00;4.70;;;35.90;66.80;;;;;;4938720;28;20270;-79
2023/07/15 12:38:15;;;;;;;4.88;4.57;;;36.00;64.30;;;;;;4938179;29;20207;-78
2023/07/15 12:40:42;;;;;;;5.40;5.00;;;36.20;64.20;;;;;;4941067;29;20199;-78
2023/07/15 12:43:09;;;;;;;4.82;4.53;;;36.20;63.90;;;;;;4937966;29;20275;-78
2023/07/15 12:45:35;;;;;;;5.20;4.75;;;36.20;65.10;;;;;;4935119;29;20552;-78
2023/07/15 12:48:04;;;;;;;5.45;4.95;;;36.30;64.90;;;;;;4939646;29;20205;-78
2023/07/15 12:50:31;;;;;;;4.95;4.60;;;36.30;65.20;;;;;;4934468;29;20227;-78